createdAt,value
2022-10-11T00:01:35.032Z,86.87
2022-10-11T00:04:01.610Z,86.87
2022-10-11T00:06:28.092Z,86.67
2022-10-11T00:08:54.481Z,86.34
2022-10-11T00:11:21.021Z,86.63
2022-10-11T00:13:47.758Z,86.76
2022-10-11T00:16:15.436Z,86.68
2022-10-11T00:18:42.495Z,86.55
2022-10-11T00:21:13.113Z,86.61
2022-10-11T00:23:40.601Z,86.73
2022-10-11T00:26:09.461Z,86.78
2022-10-11T00:28:37.074Z,87.01
2022-10-11T00:31:08.874Z,87.24
2022-10-11T00:33:41.289Z,86.73
2022-10-11T00:36:08.988Z,86.64
2022-10-11T00:38:35.956Z,86.55
2022-10-11T00:41:02.504Z,86.78
2022-10-11T00:43:31.145Z,87.32
2022-10-11T00:45:57.520Z,87.53
2022-10-11T00:48:33.608Z,87.95
2022-10-11T00:51:03.010Z,88.04
2022-10-11T00:53:30.641Z,88.15
2022-10-11T00:56:09.568Z,87.38
2022-10-11T00:58:38.633Z,87.36
2022-10-11T01:01:05.523Z,87.24
2022-10-11T01:03:35.372Z,87.57
2022-10-11T01:06:04.107Z,87.71
2022-10-11T01:08:31.524Z,87.45
2022-10-11T01:10:58.645Z,87.17
2022-10-11T01:13:41.347Z,87.31
2022-10-11T01:16:19.351Z,87.48
2022-10-11T01:19:23.166Z,87.46
2022-10-11T01:22:10.491Z,87.36
2022-10-11T01:24:58.600Z,86.94
2022-10-11T01:27:51.241Z,87.26
2022-10-11T01:30:26.776Z,87.22
2022-10-11T01:33:13.402Z,86.77
2022-10-11T01:35:45.079Z,87.50
2022-10-11T01:38:31.103Z,87.32
2022-10-11T01:41:08.503Z,87.60
2022-10-11T01:43:37.396Z,87.07
2022-10-11T01:46:05.442Z,86.99
2022-10-11T01:48:32.004Z,87.67
2022-10-11T01:51:02.180Z,87.61
2022-10-11T01:53:43.991Z,87.54
2022-10-11T01:56:31.855Z,88.03
2022-10-11T01:59:28.501Z,87.73
2022-10-11T02:02:12.069Z,87.22
2022-10-11T02:04:56.241Z,87.53
2022-10-11T02:07:31.458Z,86.82
2022-10-11T02:10:22.328Z,87.11
2022-10-11T02:12:54.990Z,87.38
2022-10-11T02:15:22.885Z,86.74
2022-10-11T02:17:54.407Z,87.57
2022-10-11T02:20:25.031Z,87.26
2022-10-11T02:22:56.705Z,87.41
2022-10-11T02:25:26.583Z,87.61
2022-10-11T02:27:56.713Z,86.88
2022-10-11T02:30:23.640Z,87.01
2022-10-11T02:32:51.688Z,86.73
2022-10-11T02:35:18.980Z,86.87
2022-10-11T02:37:53.393Z,86.98
2022-10-11T02:40:40.676Z,86.80
2022-10-11T02:43:28.089Z,87.33
2022-10-11T02:45:58.990Z,87.17
2022-10-11T02:48:28.484Z,86.91
2022-10-11T02:50:57.264Z,87.21
2022-10-11T02:53:24.816Z,87.33
2022-10-11T02:55:52.858Z,87.41
2022-10-11T02:58:20.429Z,86.50
2022-10-11T03:00:46.785Z,86.78
2022-10-11T03:03:13.156Z,86.52
2022-10-11T03:05:43.495Z,86.70
2022-10-11T03:08:12.544Z,86.79
2022-10-11T03:10:39.740Z,86.61
2022-10-11T03:13:06.517Z,87.14
2022-10-11T03:15:33.675Z,87.69
2022-10-11T03:18:00.058Z,86.89
2022-10-11T03:20:26.631Z,87.50
2022-10-11T03:22:53.758Z,87.18
2022-10-11T03:25:20.124Z,87.58
2022-10-11T03:27:46.487Z,87.76
2022-10-11T03:30:17.329Z,87.23
2022-10-11T03:32:44.688Z,87.47
2022-10-11T03:35:11.060Z,86.85
2022-10-11T03:37:37.663Z,87.57
2022-10-11T03:40:06.648Z,87.35
2022-10-11T03:42:33.174Z,87.07
2022-10-11T03:45:01.653Z,87.74
2022-10-11T03:47:28.183Z,87.56
2022-10-11T03:49:54.535Z,87.28
2022-10-11T03:52:20.972Z,87.48
2022-10-11T03:54:47.931Z,88.01
2022-10-11T03:57:14.744Z,87.42
2022-10-11T03:59:41.145Z,87.54
2022-10-11T04:02:07.710Z,87.70
2022-10-11T04:04:34.358Z,87.30
2022-10-11T04:07:00.715Z,87.06
2022-10-11T04:09:27.156Z,87.09
2022-10-11T04:11:53.486Z,87.54
2022-10-11T04:14:20.014Z,87.47
2022-10-11T04:16:46.623Z,87.74
2022-10-11T04:19:12.958Z,87.81
2022-10-11T04:21:39.288Z,87.60
2022-10-11T04:24:05.973Z,87.68
2022-10-11T04:26:32.808Z,87.67
2022-10-11T04:28:59.252Z,87.94
2022-10-11T04:31:25.816Z,87.55
2022-10-11T04:33:52.348Z,87.83
2022-10-11T04:36:18.805Z,87.38
2022-10-11T04:38:45.149Z,87.55
2022-10-11T04:41:13.934Z,87.33
2022-10-11T04:43:40.364Z,87.30
2022-10-11T04:46:07.549Z,87.54
2022-10-11T04:48:35.838Z,87.79
2022-10-11T04:51:02.257Z,87.83
2022-10-11T04:53:28.672Z,87.57
2022-10-11T04:56:01.030Z,87.09
2022-10-11T04:58:29.167Z,87.41
2022-10-11T05:00:55.916Z,87.27
2022-10-11T05:03:22.647Z,87.37
2022-10-11T05:05:49.557Z,87.13
2022-10-11T05:08:16.312Z,87.19
2022-10-11T05:10:42.951Z,87.65
2022-10-11T05:13:09.572Z,87.77
2022-10-11T05:15:35.941Z,87.88
2022-10-11T05:18:02.580Z,87.34
2022-10-11T05:20:29.078Z,87.44
2022-10-11T05:22:55.544Z,87.70
2022-10-11T05:25:21.924Z,87.60
2022-10-11T05:27:48.858Z,87.46
2022-10-11T05:30:15.749Z,87.10
2022-10-11T05:32:42.205Z,87.71
2022-10-11T05:35:08.898Z,87.52
2022-10-11T05:37:35.471Z,87.76
2022-10-11T05:40:01.823Z,87.25
2022-10-11T05:42:28.316Z,87.49
2022-10-11T05:44:54.691Z,88.04
2022-10-11T05:47:21.284Z,87.72
2022-10-11T05:49:47.666Z,87.29
2022-10-11T05:52:21.566Z,87.49
2022-10-11T05:54:49.157Z,87.44
2022-10-11T05:57:16.059Z,87.28
2022-10-11T05:59:42.536Z,86.92
2022-10-11T06:02:13.584Z,87.15
2022-10-11T06:04:40.247Z,86.98
2022-10-11T06:07:07.056Z,87.16
2022-10-11T06:09:36.182Z,87.00
2022-10-11T06:12:02.817Z,87.18
2022-10-11T06:14:29.688Z,87.21
2022-10-11T06:16:56.054Z,87.18
2022-10-11T06:19:22.492Z,86.72
2022-10-11T06:21:48.992Z,86.95
2022-10-11T06:24:15.511Z,86.83
2022-10-11T06:26:42.152Z,86.86
2022-10-11T06:29:08.604Z,86.95
2022-10-11T06:31:35.017Z,87.32
2022-10-11T06:34:01.699Z,86.96
2022-10-11T06:36:28.616Z,87.24
2022-10-11T06:38:55.320Z,86.93
2022-10-11T06:41:25.357Z,86.96
2022-10-11T06:43:52.370Z,86.95
2022-10-11T06:46:20.299Z,87.07
2022-10-11T06:48:48.102Z,86.65
2022-10-11T06:51:17.736Z,85.37
2022-10-11T06:53:49.488Z,85.27
2022-10-11T06:56:15.827Z,85.42
2022-10-11T06:58:42.228Z,85.22
2022-10-11T07:01:13.520Z,85.12
2022-10-11T07:03:40.282Z,85.18
2022-10-11T07:06:09.999Z,85.36
2022-10-11T07:08:37.285Z,85.27
2022-10-11T07:11:06.502Z,84.98
2022-10-11T07:13:32.916Z,85.08
2022-10-11T07:16:04.775Z,84.76
2022-10-11T07:18:31.823Z,84.94
2022-10-11T07:20:59.336Z,84.55
2022-10-11T07:23:26.110Z,84.83
2022-10-11T07:25:54.739Z,84.90
2022-10-11T07:28:22.295Z,84.62
2022-10-11T07:30:50.954Z,84.83
2022-10-11T07:33:18.100Z,84.00
2022-10-11T07:35:48.194Z,83.57
2022-10-11T07:38:15.591Z,81.65
2022-10-11T07:40:44.368Z,80.91
2022-10-11T07:43:11.925Z,79.09
2022-10-11T07:45:42.441Z,76.76
2022-10-11T07:48:09.309Z,75.24
2022-10-11T07:50:35.915Z,74.60
2022-10-11T07:53:03.089Z,73.78
2022-10-11T07:55:31.595Z,73.72
2022-10-11T07:58:07.860Z,73.40
2022-10-11T08:00:34.464Z,72.99
2022-10-11T08:03:04.946Z,73.43
2022-10-11T08:05:32.228Z,72.96
2022-10-11T08:07:58.862Z,72.34
2022-10-11T08:10:26.506Z,72.29
2022-10-11T08:12:53.813Z,69.89
2022-10-11T08:15:27.020Z,67.90
2022-10-11T08:17:53.364Z,64.97
2022-10-11T08:20:19.913Z,59.85
2022-10-11T08:22:46.298Z,58.54
2022-10-11T08:25:12.649Z,58.50
2022-10-11T08:27:40.326Z,59.28
2022-10-11T08:30:11.825Z,57.71
2022-10-11T08:32:38.186Z,58.00
2022-10-11T08:35:04.955Z,57.25
2022-10-11T08:37:31.480Z,58.33
2022-10-11T08:39:57.870Z,58.41
2022-10-11T08:42:41.579Z,58.55
2022-10-11T08:45:14.081Z,59.74
2022-10-11T08:47:44.128Z,60.21
2022-10-11T08:50:21.765Z,60.51
2022-10-11T08:52:57.651Z,60.64
2022-10-11T08:55:36.136Z,59.25
2022-10-11T08:58:02.721Z,56.63
2022-10-11T09:00:33.020Z,54.21
2022-10-11T09:03:08.669Z,50.84
2022-10-11T09:05:48.385Z,48.32
2022-10-11T09:08:23.044Z,45.83
2022-10-11T09:11:01.742Z,43.48
2022-10-11T09:14:07.352Z,41.61
2022-10-11T09:17:03.349Z,42.36
2022-10-11T09:19:52.164Z,45.95
2022-10-11T09:22:43.377Z,49.54
2022-10-11T09:25:24.573Z,51.39
2022-10-11T09:28:06.289Z,53.02
2022-10-11T09:30:39.441Z,53.02
2022-10-11T09:33:08.772Z,53.71
2022-10-11T09:35:46.049Z,54.68
2022-10-11T09:38:18.844Z,55.85
2022-10-11T09:40:58.540Z,56.54
2022-10-11T09:43:25.384Z,57.07
2022-10-11T09:45:51.852Z,58.35
2022-10-11T09:48:22.693Z,57.28
2022-10-11T09:50:50.433Z,58.00
2022-10-11T09:53:16.948Z,57.83
2022-10-11T09:55:50.890Z,58.07
2022-10-11T09:58:35.492Z,59.04
2022-10-11T10:04:17.114Z,56.83
2022-10-11T10:06:43.521Z,57.83
2022-10-11T10:09:30.617Z,57.01
2022-10-11T10:12:09.918Z,58.98
2022-10-11T10:14:36.333Z,59.34
2022-10-11T10:17:06.535Z,60.50
2022-10-11T10:19:44.698Z,59.01
2022-10-11T10:22:20.800Z,60.26
2022-10-11T10:24:49.603Z,59.55
2022-10-11T10:27:24.607Z,59.24
2022-10-11T10:30:15.835Z,59.49
2022-10-11T10:33:04.527Z,59.58
2022-10-11T10:35:44.633Z,59.47
2022-10-11T10:38:35.634Z,59.96
2022-10-11T10:41:09.144Z,60.02
2022-10-11T10:43:38.375Z,60.70
2022-10-11T10:46:26.112Z,61.97
2022-10-11T10:52:41.097Z,61.86
2022-10-11T10:55:26.421Z,61.23
2022-10-11T10:58:07.353Z,62.77
2022-10-11T11:00:44.165Z,61.41
2022-10-11T11:03:37.315Z,61.12
2022-10-11T11:06:10.212Z,61.39
2022-10-11T11:08:57.540Z,60.21
2022-10-11T11:11:31.830Z,59.47
2022-10-11T11:14:27.953Z,57.37
2022-10-11T11:17:13.084Z,58.57
2022-10-11T11:19:53.580Z,58.71
2022-10-11T11:22:35.432Z,57.23
2022-10-11T11:25:19.936Z,58.78
2022-10-11T11:28:05.910Z,58.47
2022-10-11T11:31:03.602Z,58.08
2022-10-11T11:33:52.064Z,58.53
2022-10-11T11:36:43.686Z,58.53
2022-10-11T11:39:21.222Z,58.84
2022-10-11T11:42:02.041Z,60.40
2022-10-11T11:44:48.037Z,59.32
2022-10-11T11:47:31.918Z,60.09
2022-10-11T11:53:24.813Z,60.01
2022-10-11T11:56:08.935Z,61.03
2022-10-11T11:59:23.325Z,61.01
2022-10-11T12:02:14.137Z,60.37
2022-10-11T12:04:49.001Z,60.37
2022-10-11T12:09:59.042Z,59.78
2022-10-11T12:12:33.868Z,58.42
2022-10-11T12:18:16.496Z,57.43
2022-10-11T12:20:44.207Z,57.29
2022-10-11T12:23:43.537Z,56.84
2022-10-11T12:26:36.817Z,54.99
2022-10-11T12:29:05.996Z,55.79
2022-10-11T12:31:41.303Z,54.48
2022-10-11T12:34:10.192Z,55.00
2022-10-11T12:36:42.896Z,55.32
2022-10-11T12:39:18.155Z,55.94
2022-10-11T12:41:47.616Z,55.90
2022-10-11T12:47:00.055Z,56.88
2022-10-11T12:49:57.776Z,57.63
2022-10-11T12:53:05.254Z,58.30
2022-10-11T12:56:00.020Z,58.16
2022-10-11T12:58:46.401Z,57.97
2022-10-11T13:01:18.065Z,56.70
2022-10-11T13:06:29.726Z,55.40
2022-10-11T13:09:04.652Z,54.50
2022-10-11T13:11:38.764Z,54.54
2022-10-11T13:14:29.237Z,55.68
2022-10-11T13:17:44.268Z,54.54
2022-10-11T13:20:17.763Z,55.82
2022-10-11T13:22:48.350Z,55.71
2022-10-11T13:25:48.520Z,57.02
2022-10-11T13:37:53.353Z,59.26
2022-10-11T13:43:42.849Z,61.27
2022-10-11T13:46:43.875Z,60.12
2022-10-11T13:52:27.597Z,61.74
2022-10-11T13:55:02.969Z,61.05
2022-10-11T13:57:45.050Z,60.65
2022-10-11T14:00:32.213Z,61.54
2022-10-11T14:03:24.771Z,62.06
2022-10-11T14:06:01.750Z,57.51
2022-10-11T14:08:54.151Z,56.15
2022-10-11T14:11:36.574Z,54.39
2022-10-11T14:14:30.025Z,55.08
2022-10-11T14:16:59.587Z,56.22
2022-10-11T14:19:26.380Z,56.18
2022-10-11T14:21:53.296Z,55.24
2022-10-11T14:24:20.799Z,56.46
2022-10-11T14:26:54.570Z,55.97
2022-10-11T14:32:37.059Z,54.26
2022-10-11T14:35:04.347Z,54.33
2022-10-11T14:37:43.177Z,54.27
2022-10-11T14:40:14.149Z,55.33
2022-10-11T14:42:41.120Z,54.15
2022-10-11T14:45:13.617Z,54.14
2022-10-11T14:47:43.549Z,53.48
2022-10-11T14:50:44.849Z,53.02
2022-10-11T14:53:12.391Z,53.78
2022-10-11T14:55:44.188Z,53.98
2022-10-11T14:58:17.522Z,55.22
2022-10-11T15:00:51.199Z,55.28
2022-10-11T15:03:52.872Z,56.00
2022-10-11T15:06:48.842Z,56.17
2022-10-11T15:09:44.869Z,57.31
2022-10-11T15:12:27.057Z,58.53
2022-10-11T15:14:57.551Z,58.44
2022-10-11T15:17:31.208Z,59.33
2022-10-11T15:36:37.998Z,62.61
2022-10-11T15:39:07.525Z,62.89
2022-10-11T15:41:36.458Z,63.08
2022-10-11T15:44:03.340Z,63.18
2022-10-11T15:46:41.613Z,63.42
2022-10-11T15:49:13.576Z,63.40
2022-10-11T15:51:41.131Z,63.54
2022-10-11T15:54:07.644Z,63.61
2022-10-11T15:56:34.327Z,64.39
2022-10-11T15:59:01.811Z,64.55
2022-10-11T16:01:29.890Z,65.03
2022-10-11T16:03:56.546Z,65.26
2022-10-11T16:06:23.674Z,66.07
2022-10-11T16:08:50.342Z,66.05
2022-10-11T16:11:24.353Z,66.70
2022-10-11T16:13:50.829Z,67.45
2022-10-11T16:16:17.645Z,67.93
2022-10-11T16:18:44.580Z,68.33
2022-10-11T16:21:15.667Z,68.92
2022-10-11T16:23:46.130Z,69.12
2022-10-11T16:26:14.625Z,69.59
2022-10-11T16:28:44.794Z,70.55
2022-10-11T16:31:21.347Z,70.53
2022-10-11T16:34:00.440Z,71.33
2022-10-11T16:36:41.021Z,71.44
2022-10-11T16:39:15.971Z,71.93
2022-10-11T16:41:43.284Z,72.10
2022-10-11T16:44:20.889Z,72.35
2022-10-11T16:46:49.204Z,73.01
2022-10-11T16:49:17.879Z,73.05
2022-10-11T16:51:44.659Z,73.61
2022-10-11T16:54:13.723Z,73.56
2022-10-11T16:56:44.150Z,74.31
2022-10-11T16:59:12.068Z,74.45
2022-10-11T17:01:46.807Z,74.92
2022-10-11T17:04:14.027Z,75.02
2022-10-11T17:06:43.909Z,75.24
2022-10-11T17:09:11.515Z,75.30
2022-10-11T17:11:41.401Z,75.66
2022-10-11T17:14:08.782Z,76.30
2022-10-11T17:16:36.170Z,76.72
2022-10-11T17:19:18.065Z,76.82
2022-10-11T17:21:44.622Z,76.97
2022-10-11T17:24:11.252Z,77.30
2022-10-11T17:26:39.354Z,77.40
2022-10-11T17:29:06.746Z,77.99
2022-10-11T17:31:33.280Z,77.98
2022-10-11T17:34:01.167Z,77.94
2022-10-11T17:36:34.520Z,77.93
2022-10-11T17:39:06.860Z,78.20
2022-10-11T17:41:33.416Z,78.15
2022-10-11T17:44:02.898Z,78.20
2022-10-11T17:46:32.906Z,78.38
2022-10-11T17:49:01.395Z,78.62
2022-10-11T17:51:28.016Z,78.79
2022-10-11T17:53:54.591Z,79.13
2022-10-11T17:56:28.121Z,79.08
2022-10-11T17:58:58.333Z,79.14
2022-10-11T18:01:28.680Z,79.17
2022-10-11T18:04:00.824Z,79.68
2022-10-11T18:06:29.754Z,79.86
2022-10-11T18:08:59.513Z,80.18
2022-10-11T18:11:25.988Z,80.03
2022-10-11T18:13:55.735Z,79.79
2022-10-11T18:16:24.688Z,79.46
2022-10-11T18:18:51.368Z,79.35
2022-10-11T18:21:18.749Z,79.40
2022-10-11T18:23:45.741Z,79.79
2022-10-11T18:26:17.094Z,80.22
2022-10-11T18:28:50.433Z,80.26
2022-10-11T18:31:23.228Z,80.39
2022-10-11T18:36:27.890Z,80.55
2022-10-11T18:38:57.457Z,80.41
2022-10-11T18:41:30.648Z,80.75
2022-10-11T18:44:00.332Z,80.57
2022-10-11T18:46:27.908Z,80.92
2022-10-11T18:48:56.310Z,81.19
2022-10-11T18:51:25.154Z,81.10
2022-10-11T18:53:52.494Z,81.41
2022-10-11T18:56:20.830Z,81.43
2022-10-11T18:58:49.206Z,81.46
2022-10-11T19:01:22.049Z,81.70
2022-10-11T19:03:52.589Z,81.46
2022-10-11T19:06:47.961Z,81.79
2022-10-11T19:09:17.814Z,81.60
2022-10-11T19:11:48.588Z,81.85
2022-10-11T19:14:17.534Z,81.95
2022-10-11T19:16:49.119Z,81.72
2022-10-11T19:19:16.593Z,81.61
2022-10-11T19:21:43.035Z,82.11
2022-10-11T19:24:09.692Z,82.02
2022-10-11T19:26:38.826Z,81.86
2022-10-11T19:29:08.775Z,82.11
2022-10-11T19:31:39.996Z,81.66
2022-10-11T19:34:07.863Z,81.90
2022-10-11T19:36:36.817Z,82.14
2022-10-11T19:39:04.936Z,82.30
2022-10-11T19:41:31.718Z,81.90
2022-10-11T19:43:58.234Z,81.73
2022-10-11T19:46:50.294Z,81.94
2022-10-11T19:49:14.144Z,82.23
2022-10-11T19:51:40.714Z,82.06
2022-10-11T19:54:10.975Z,82.06
2022-10-11T19:56:37.552Z,81.96
2022-10-11T19:59:06.548Z,81.43
2022-10-11T20:01:55.856Z,81.76
2022-10-11T20:04:50.539Z,82.06
2022-10-11T20:07:08.612Z,82.03
2022-10-11T20:09:35.115Z,82.10
2022-10-11T20:12:01.494Z,82.08
2022-10-11T20:14:28.072Z,82.08
2022-10-11T20:16:54.498Z,82.27
2022-10-11T20:19:25.023Z,82.80
2022-10-11T20:21:53.231Z,82.05
2022-10-11T20:24:21.022Z,81.99
2022-10-11T20:26:47.474Z,82.18
2022-10-11T20:29:13.801Z,82.04
2022-10-11T20:31:41.738Z,81.98
2022-10-11T20:34:10.112Z,81.81
2022-10-11T20:36:36.659Z,82.00
2022-10-11T20:39:04.807Z,82.43
2022-10-11T20:44:49.625Z,82.20
2022-10-11T20:47:16.108Z,82.30
2022-10-11T20:49:45.359Z,82.18
2022-10-11T20:52:11.828Z,82.26
2022-10-11T20:54:40.576Z,82.33
2022-10-11T20:57:07.232Z,82.28
2022-10-11T20:59:33.627Z,82.33
2022-10-11T21:02:00.041Z,82.41
2022-10-11T21:04:26.590Z,82.24
2022-10-11T21:06:52.951Z,82.12
2022-10-11T21:09:19.512Z,82.33
2022-10-11T21:11:46.229Z,82.44
2022-10-11T21:14:12.781Z,82.78
2022-10-11T21:16:39.245Z,82.73
2022-10-11T21:19:06.394Z,82.43
2022-10-11T21:21:33.070Z,82.51
2022-10-11T21:24:01.248Z,82.68
2022-10-11T21:26:28.702Z,82.82
2022-10-11T21:28:55.374Z,82.80
2022-10-11T21:31:23.108Z,82.39
2022-10-11T21:33:50.000Z,82.47
2022-10-11T21:36:22.390Z,82.22
2022-10-11T21:38:50.149Z,82.65
2022-10-11T21:41:20.029Z,82.73
2022-10-11T21:43:47.296Z,83.41
2022-10-11T21:46:47.576Z,83.58
2022-10-11T21:49:13.613Z,83.20
2022-10-11T21:51:40.154Z,83.25
2022-10-11T21:54:06.838Z,83.34
2022-10-11T21:56:33.209Z,83.53
2022-10-11T21:58:59.761Z,83.51
2022-10-11T22:01:26.434Z,83.32
2022-10-11T22:03:54.003Z,83.71
2022-10-11T22:06:20.848Z,83.54
2022-10-11T22:08:47.887Z,83.63
2022-10-11T22:11:14.379Z,83.35
2022-10-11T22:13:40.888Z,83.59
2022-10-11T22:16:12.638Z,83.95
2022-10-11T22:18:39.829Z,83.78
2022-10-11T22:21:18.631Z,83.94
2022-10-11T22:23:47.870Z,83.88
2022-10-11T22:26:22.214Z,84.20
2022-10-11T22:28:49.161Z,84.41
2022-10-11T22:31:18.273Z,84.15
2022-10-11T22:36:12.756Z,83.71
2022-10-11T22:38:41.695Z,84.06
2022-10-11T22:41:08.933Z,83.78
2022-10-11T22:43:35.869Z,83.80
2022-10-11T22:46:02.725Z,83.66
2022-10-11T22:48:29.209Z,83.96
2022-10-11T22:50:55.585Z,83.89
2022-10-11T22:53:22.097Z,83.84
2022-10-11T22:55:48.568Z,84.03
2022-10-11T22:58:15.030Z,83.69
2022-10-11T23:00:41.563Z,83.87
2022-10-11T23:03:08.089Z,83.62
2022-10-11T23:05:35.504Z,83.60
2022-10-11T23:08:01.886Z,84.25
2022-10-11T23:10:28.337Z,83.76
2022-10-11T23:12:54.713Z,83.81
2022-10-11T23:15:21.106Z,83.92
2022-10-11T23:17:48.373Z,83.87
2022-10-11T23:20:14.852Z,83.57
2022-10-11T23:22:41.398Z,84.11
2022-10-11T23:25:08.325Z,83.96
2022-10-11T23:27:34.795Z,83.72
2022-10-11T23:30:01.341Z,84.26
2022-10-11T23:32:27.755Z,83.77
2022-10-11T23:34:54.280Z,83.87
2022-10-11T23:37:20.796Z,84.32
2022-10-11T23:39:47.240Z,84.17
2022-10-11T23:42:13.685Z,84.31
2022-10-11T23:44:40.040Z,83.95
2022-10-11T23:47:06.411Z,83.90
2022-10-11T23:49:32.868Z,84.08
2022-10-11T23:51:59.264Z,83.99
2022-10-11T23:54:25.727Z,83.63
2022-10-11T23:56:52.249Z,83.79
2022-10-11T23:59:18.705Z,83.76
